sensor_id;sensor_type;location;lat;lon;timestamp;P1;durP1;ratioP1;P2;durP2;ratioP2
19312;SDS011;9791;50.820;4.406;2023-04-06T00:00:53;20.63;;;8.52;;
19312;SDS011;9791;50.820;4.406;2023-04-06T00:03:19;18.15;;;9.07;;
19312;SDS011;9791;50.820;4.406;2023-04-06T00:05:46;17.52;;;8.23;;
19312;SDS011;9791;50.820;4.406;2023-04-06T00:08:12;14.57;;;7.57;;
19312;SDS011;9791;50.820;4.406;2023-04-06T00:10:39;16.98;;;8.23;;
19312;SDS011;9791;50.820;4.406;2023-04-06T00:13:05;16.95;;;8.65;;
19312;SDS011;9791;50.820;4.406;2023-04-06T00:15:32;19.52;;;9.23;;
19312;SDS011;9791;50.820;4.406;2023-04-06T00:17:58;17.13;;;8.75;;
19312;SDS011;9791;50.820;4.406;2023-04-06T00:20:24;15.40;;;8.48;;
19312;SDS011;9791;50.820;4.406;2023-04-06T00:22:50;14.07;;;8.02;;
19312;SDS011;9791;50.820;4.406;2023-04-06T00:25:16;14.93;;;8.65;;
19312;SDS011;9791;50.820;4.406;2023-04-06T00:27:42;19.70;;;8.57;;
19312;SDS011;9791;50.820;4.406;2023-04-06T00:30:08;14.80;;;8.45;;
19312;SDS011;9791;50.820;4.406;2023-04-06T00:32:35;15.40;;;9.18;;
19312;SDS011;9791;50.820;4.406;2023-04-06T00:35:02;15.48;;;8.55;;
19312;SDS011;9791;50.820;4.406;2023-04-06T00:37:28;16.15;;;8.57;;
19312;SDS011;9791;50.820;4.406;2023-04-06T00:39:54;13.95;;;8.48;;
19312;SDS011;9791;50.820;4.406;2023-04-06T00:42:20;19.80;;;9.20;;
19312;SDS011;9791;50.820;4.406;2023-04-06T00:44:50;15.32;;;8.25;;
19312;SDS011;9791;50.820;4.406;2023-04-06T00:47:16;16.17;;;9.00;;
19312;SDS011;9791;50.820;4.406;2023-04-06T00:49:42;15.38;;;8.85;;
19312;SDS011;9791;50.820;4.406;2023-04-06T00:52:08;15.23;;;8.15;;
19312;SDS011;9791;50.820;4.406;2023-04-06T00:54:35;15.98;;;9.00;;
19312;SDS011;9791;50.820;4.406;2023-04-06T00:57:01;16.63;;;9.32;;
19312;SDS011;9791;50.820;4.406;2023-04-06T00:59:27;16.20;;;9.25;;
19312;SDS011;9791;50.820;4.406;2023-04-06T01:01:54;18.95;;;9.05;;
19312;SDS011;9791;50.820;4.406;2023-04-06T01:04:20;15.65;;;8.45;;
19312;SDS011;9791;50.820;4.406;2023-04-06T01:06:48;16.13;;;9.65;;
19312;SDS011;9791;50.820;4.406;2023-04-06T01:09:14;19.48;;;9.35;;
19312;SDS011;9791;50.820;4.406;2023-04-06T01:11:40;16.73;;;9.07;;
19312;SDS011;9791;50.820;4.406;2023-04-06T01:14:06;16.25;;;8.65;;
19312;SDS011;9791;50.820;4.406;2023-04-06T01:16:32;14.82;;;8.85;;
19312;SDS011;9791;50.820;4.406;2023-04-06T01:18:59;17.02;;;8.63;;
19312;SDS011;9791;50.820;4.406;2023-04-06T01:21:25;13.73;;;7.75;;
19312;SDS011;9791;50.820;4.406;2023-04-06T01:23:51;17.88;;;8.88;;
19312;SDS011;9791;50.820;4.406;2023-04-06T01:26:17;17.13;;;8.38;;
19312;SDS011;9791;50.820;4.406;2023-04-06T01:28:43;15.45;;;8.52;;
19312;SDS011;9791;50.820;4.406;2023-04-06T01:31:09;17.35;;;8.43;;
19312;SDS011;9791;50.820;4.406;2023-04-06T01:33:35;16.40;;;8.90;;
19312;SDS011;9791;50.820;4.406;2023-04-06T01:36:02;13.95;;;8.40;;
19312;SDS011;9791;50.820;4.406;2023-04-06T01:38:28;17.15;;;9.00;;
19312;SDS011;9791;50.820;4.406;2023-04-06T01:40:55;15.88;;;9.00;;
19312;SDS011;9791;50.820;4.406;2023-04-06T01:43:21;17.42;;;9.05;;
19312;SDS011;9791;50.820;4.406;2023-04-06T01:45:47;16.67;;;9.38;;
19312;SDS011;9791;50.820;4.406;2023-04-06T01:48:14;15.45;;;8.02;;
19312;SDS011;9791;50.820;4.406;2023-04-06T01:50:40;15.45;;;9.00;;
19312;SDS011;9791;50.820;4.406;2023-04-06T01:53:06;14.93;;;8.90;;
19312;SDS011;9791;50.820;4.406;2023-04-06T01:55:32;16.65;;;9.10;;
19312;SDS011;9791;50.820;4.406;2023-04-06T01:57:58;15.57;;;9.00;;
19312;SDS011;9791;50.820;4.406;2023-04-06T02:00:24;15.75;;;9.65;;
19312;SDS011;9791;50.820;4.406;2023-04-06T02:02:50;15.77;;;9.02;;
19312;SDS011;9791;50.820;4.406;2023-04-06T02:05:16;16.50;;;9.38;;
19312;SDS011;9791;50.820;4.406;2023-04-06T02:07:42;20.27;;;10.80;;
19312;SDS011;9791;50.820;4.406;2023-04-06T02:10:11;15.20;;;8.88;;
19312;SDS011;9791;50.820;4.406;2023-04-06T02:12:38;17.00;;;9.32;;
19312;SDS011;9791;50.820;4.406;2023-04-06T02:15:04;19.60;;;9.00;;
19312;SDS011;9791;50.820;4.406;2023-04-06T02:17:30;17.92;;;9.70;;
19312;SDS011;9791;50.820;4.406;2023-04-06T02:19:56;18.35;;;10.30;;
19312;SDS011;9791;50.820;4.406;2023-04-06T02:22:22;18.58;;;9.48;;
19312;SDS011;9791;50.820;4.406;2023-04-06T02:24:48;17.40;;;9.23;;
19312;SDS011;9791;50.820;4.406;2023-04-06T02:27:15;16.50;;;9.82;;
19312;SDS011;9791;50.820;4.406;2023-04-06T02:29:41;18.48;;;9.15;;
19312;SDS011;9791;50.820;4.406;2023-04-06T02:32:07;18.52;;;8.98;;
19312;SDS011;9791;50.820;4.406;2023-04-06T02:34:33;19.63;;;9.60;;
19312;SDS011;9791;50.820;4.406;2023-04-06T02:36:59;17.40;;;9.07;;
19312;SDS011;9791;50.820;4.406;2023-04-06T02:39:25;18.10;;;9.70;;
19312;SDS011;9791;50.820;4.406;2023-04-06T02:41:51;16.67;;;9.18;;
19312;SDS011;9791;50.820;4.406;2023-04-06T02:44:18;18.48;;;9.15;;
19312;SDS011;9791;50.820;4.406;2023-04-06T02:46:44;17.42;;;9.00;;
19312;SDS011;9791;50.820;4.406;2023-04-06T02:49:11;20.20;;;9.48;;
19312;SDS011;9791;50.820;4.406;2023-04-06T02:51:37;13.98;;;8.45;;
19312;SDS011;9791;50.820;4.406;2023-04-06T02:54:03;15.18;;;8.90;;
19312;SDS011;9791;50.820;4.406;2023-04-06T02:56:29;17.05;;;9.32;;
19312;SDS011;9791;50.820;4.406;2023-04-06T02:58:55;19.92;;;9.40;;
19312;SDS011;9791;50.820;4.406;2023-04-06T03:01:21;16.38;;;9.57;;
19312;SDS011;9791;50.820;4.406;2023-04-06T03:03:47;14.85;;;9.07;;
19312;SDS011;9791;50.820;4.406;2023-04-06T03:06:13;17.60;;;9.85;;
19312;SDS011;9791;50.820;4.406;2023-04-06T03:08:40;16.02;;;9.50;;
19312;SDS011;9791;50.820;4.406;2023-04-06T03:11:08;14.82;;;8.90;;
19312;SDS011;9791;50.820;4.406;2023-04-06T03:13:34;17.02;;;9.20;;
19312;SDS011;9791;50.820;4.406;2023-04-06T03:16:00;21.70;;;9.75;;
19312;SDS011;9791;50.820;4.406;2023-04-06T03:18:27;15.90;;;9.52;;
19312;SDS011;9791;50.820;4.406;2023-04-06T03:20:53;17.15;;;10.02;;
19312;SDS011;9791;50.820;4.406;2023-04-06T03:23:19;17.90;;;9.43;;
19312;SDS011;9791;50.820;4.406;2023-04-06T03:25:46;15.50;;;8.52;;
19312;SDS011;9791;50.820;4.406;2023-04-06T03:28:12;16.73;;;9.30;;
19312;SDS011;9791;50.820;4.406;2023-04-06T03:30:38;17.90;;;9.85;;
19312;SDS011;9791;50.820;4.406;2023-04-06T03:33:04;18.50;;;10.00;;
19312;SDS011;9791;50.820;4.406;2023-04-06T03:35:30;15.35;;;9.10;;
19312;SDS011;9791;50.820;4.406;2023-04-06T03:37:56;17.75;;;8.80;;
19312;SDS011;9791;50.820;4.406;2023-04-06T03:40:22;18.08;;;10.23;;
19312;SDS011;9791;50.820;4.406;2023-04-06T03:42:48;15.20;;;9.75;;
19312;SDS011;9791;50.820;4.406;2023-04-06T03:45:14;18.50;;;9.93;;
19312;SDS011;9791;50.820;4.406;2023-04-06T03:47:40;15.48;;;9.48;;
19312;SDS011;9791;50.820;4.406;2023-04-06T03:50:07;14.88;;;8.85;;
19312;SDS011;9791;50.820;4.406;2023-04-06T03:52:33;15.80;;;9.25;;
19312;SDS011;9791;50.820;4.406;2023-04-06T03:55:00;15.70;;;8.85;;
19312;SDS011;9791;50.820;4.406;2023-04-06T03:57:26;17.67;;;9.10;;
19312;SDS011;9791;50.820;4.406;2023-04-06T03:59:52;20.63;;;10.20;;
19312;SDS011;9791;50.820;4.406;2023-04-06T04:02:18;18.27;;;9.32;;
19312;SDS011;9791;50.820;4.406;2023-04-06T04:04:44;17.30;;;9.90;;
19312;SDS011;9791;50.820;4.406;2023-04-06T04:07:10;16.67;;;9.70;;
19312;SDS011;9791;50.820;4.406;2023-04-06T04:09:36;17.27;;;10.40;;
19312;SDS011;9791;50.820;4.406;2023-04-06T04:12:02;16.00;;;9.45;;
19312;SDS011;9791;50.820;4.406;2023-04-06T04:14:29;17.08;;;10.63;;
19312;SDS011;9791;50.820;4.406;2023-04-06T04:16:55;18.65;;;10.07;;
19312;SDS011;9791;50.820;4.406;2023-04-06T04:19:21;19.08;;;9.93;;
19312;SDS011;9791;50.820;4.406;2023-04-06T04:21:47;19.08;;;10.27;;
19312;SDS011;9791;50.820;4.406;2023-04-06T04:24:13;19.00;;;10.00;;
19312;SDS011;9791;50.820;4.406;2023-04-06T04:26:39;14.82;;;9.35;;
19312;SDS011;9791;50.820;4.406;2023-04-06T04:29:05;17.40;;;9.40;;
19312;SDS011;9791;50.820;4.406;2023-04-06T04:31:31;17.80;;;9.85;;
19312;SDS011;9791;50.820;4.406;2023-04-06T04:33:59;17.92;;;9.75;;
19312;SDS011;9791;50.820;4.406;2023-04-06T04:36:25;16.25;;;8.90;;
19312;SDS011;9791;50.820;4.406;2023-04-06T04:38:51;18.92;;;10.75;;
19312;SDS011;9791;50.820;4.406;2023-04-06T04:41:18;18.17;;;9.73;;
19312;SDS011;9791;50.820;4.406;2023-04-06T04:43:44;16.10;;;9.07;;
19312;SDS011;9791;50.820;4.406;2023-04-06T04:46:10;18.23;;;9.90;;
19312;SDS011;9791;50.820;4.406;2023-04-06T04:48:36;18.70;;;9.98;;
19312;SDS011;9791;50.820;4.406;2023-04-06T04:51:03;17.08;;;10.02;;
19312;SDS011;9791;50.820;4.406;2023-04-06T04:53:30;19.30;;;10.38;;
19312;SDS011;9791;50.820;4.406;2023-04-06T04:55:56;18.80;;;10.52;;
19312;SDS011;9791;50.820;4.406;2023-04-06T04:58:22;15.88;;;9.80;;
19312;SDS011;9791;50.820;4.406;2023-04-06T05:00:48;21.15;;;10.18;;
19312;SDS011;9791;50.820;4.406;2023-04-06T05:03:21;19.83;;;9.93;;
19312;SDS011;9791;50.820;4.406;2023-04-06T05:05:47;19.38;;;10.35;;
19312;SDS011;9791;50.820;4.406;2023-04-06T05:08:13;17.38;;;9.40;;
19312;SDS011;9791;50.820;4.406;2023-04-06T05:10:40;17.40;;;10.35;;
19312;SDS011;9791;50.820;4.406;2023-04-06T05:13:06;16.48;;;10.38;;
19312;SDS011;9791;50.820;4.406;2023-04-06T05:15:32;18.52;;;9.80;;
19312;SDS011;9791;50.820;4.406;2023-04-06T05:18:00;17.90;;;10.35;;
19312;SDS011;9791;50.820;4.406;2023-04-06T05:20:26;19.73;;;9.55;;
19312;SDS011;9791;50.820;4.406;2023-04-06T05:22:53;21.55;;;10.95;;
19312;SDS011;9791;50.820;4.406;2023-04-06T05:25:19;22.00;;;11.07;;
19312;SDS011;9791;50.820;4.406;2023-04-06T05:27:45;22.48;;;11.00;;
19312;SDS011;9791;50.820;4.406;2023-04-06T05:30:11;16.95;;;9.90;;
19312;SDS011;9791;50.820;4.406;2023-04-06T05:32:37;18.33;;;10.32;;
19312;SDS011;9791;50.820;4.406;2023-04-06T05:35:03;17.00;;;10.02;;
19312;SDS011;9791;50.820;4.406;2023-04-06T05:37:30;19.20;;;11.00;;
19312;SDS011;9791;50.820;4.406;2023-04-06T05:39:56;17.58;;;10.38;;
19312;SDS011;9791;50.820;4.406;2023-04-06T05:42:22;16.77;;;10.45;;
19312;SDS011;9791;50.820;4.406;2023-04-06T05:44:48;19.25;;;11.10;;
19312;SDS011;9791;50.820;4.406;2023-04-06T05:47:14;19.67;;;10.52;;
19312;SDS011;9791;50.820;4.406;2023-04-06T05:49:43;19.02;;;10.95;;
19312;SDS011;9791;50.820;4.406;2023-04-06T05:52:09;21.83;;;10.07;;
19312;SDS011;9791;50.820;4.406;2023-04-06T05:54:36;23.15;;;10.63;;
19312;SDS011;9791;50.820;4.406;2023-04-06T05:57:03;19.63;;;11.13;;
19312;SDS011;9791;50.820;4.406;2023-04-06T05:59:31;18.55;;;11.75;;
19312;SDS011;9791;50.820;4.406;2023-04-06T06:01:57;23.27;;;12.98;;
19312;SDS011;9791;50.820;4.406;2023-04-06T06:04:26;20.20;;;11.98;;
19312;SDS011;9791;50.820;4.406;2023-04-06T06:06:52;19.85;;;11.95;;
19312;SDS011;9791;50.820;4.406;2023-04-06T06:09:18;22.95;;;12.55;;
19312;SDS011;9791;50.820;4.406;2023-04-06T06:11:44;29.50;;;13.05;;
19312;SDS011;9791;50.820;4.406;2023-04-06T06:14:11;22.23;;;12.15;;
19312;SDS011;9791;50.820;4.406;2023-04-06T06:16:37;24.23;;;12.48;;
19312;SDS011;9791;50.820;4.406;2023-04-06T06:19:03;19.42;;;10.88;;
19312;SDS011;9791;50.820;4.406;2023-04-06T06:21:29;24.38;;;12.05;;
19312;SDS011;9791;50.820;4.406;2023-04-06T06:23:56;24.40;;;11.50;;
19312;SDS011;9791;50.820;4.406;2023-04-06T06:26:23;17.95;;;11.30;;
19312;SDS011;9791;50.820;4.406;2023-04-06T06:28:49;20.02;;;11.43;;
19312;SDS011;9791;50.820;4.406;2023-04-06T06:31:15;23.23;;;11.60;;
19312;SDS011;9791;50.820;4.406;2023-04-06T06:33:41;18.25;;;10.93;;
19312;SDS011;9791;50.820;4.406;2023-04-06T06:36:08;19.88;;;11.70;;
19312;SDS011;9791;50.820;4.406;2023-04-06T06:38:34;23.08;;;11.73;;
19312;SDS011;9791;50.820;4.406;2023-04-06T06:41:00;19.45;;;11.48;;
19312;SDS011;9791;50.820;4.406;2023-04-06T06:43:26;20.35;;;12.30;;
19312;SDS011;9791;50.820;4.406;2023-04-06T06:45:52;18.25;;;11.35;;
19312;SDS011;9791;50.820;4.406;2023-04-06T06:48:18;21.10;;;11.60;;
19312;SDS011;9791;50.820;4.406;2023-04-06T06:50:44;18.67;;;11.50;;
19312;SDS011;9791;50.820;4.406;2023-04-06T06:53:10;16.70;;;11.23;;
19312;SDS011;9791;50.820;4.406;2023-04-06T06:55:36;18.13;;;11.25;;
19312;SDS011;9791;50.820;4.406;2023-04-06T06:58:02;18.45;;;11.30;;
19312;SDS011;9791;50.820;4.406;2023-04-06T07:00:28;21.67;;;11.95;;
19312;SDS011;9791;50.820;4.406;2023-04-06T07:02:54;17.05;;;11.25;;
19312;SDS011;9791;50.820;4.406;2023-04-06T07:05:20;20.23;;;11.55;;
19312;SDS011;9791;50.820;4.406;2023-04-06T07:07:46;22.67;;;11.80;;
19312;SDS011;9791;50.820;4.406;2023-04-06T07:10:12;20.33;;;11.20;;
19312;SDS011;9791;50.820;4.406;2023-04-06T07:12:38;18.75;;;11.07;;
19312;SDS011;9791;50.820;4.406;2023-04-06T07:15:05;18.50;;;10.80;;
19312;SDS011;9791;50.820;4.406;2023-04-06T07:17:31;20.52;;;11.25;;
19312;SDS011;9791;50.820;4.406;2023-04-06T07:19:57;17.38;;;11.43;;
19312;SDS011;9791;50.820;4.406;2023-04-06T07:22:24;17.95;;;11.18;;
19312;SDS011;9791;50.820;4.406;2023-04-06T07:24:50;17.30;;;10.07;;
19312;SDS011;9791;50.820;4.406;2023-04-06T07:27:16;15.00;;;9.85;;
19312;SDS011;9791;50.820;4.406;2023-04-06T07:29:43;15.93;;;9.70;;
19312;SDS011;9791;50.820;4.406;2023-04-06T07:32:10;18.65;;;9.90;;
19312;SDS011;9791;50.820;4.406;2023-04-06T07:34:36;20.25;;;10.35;;
19312;SDS011;9791;50.820;4.406;2023-04-06T07:37:02;16.50;;;9.38;;
19312;SDS011;9791;50.820;4.406;2023-04-06T07:39:28;16.05;;;8.52;;
19312;SDS011;9791;50.820;4.406;2023-04-06T07:41:54;16.88;;;9.70;;
19312;SDS011;9791;50.820;4.406;2023-04-06T07:44:20;16.55;;;9.07;;
19312;SDS011;9791;50.820;4.406;2023-04-06T07:46:46;13.38;;;8.18;;
19312;SDS011;9791;50.820;4.406;2023-04-06T07:49:13;15.23;;;8.52;;
19312;SDS011;9791;50.820;4.406;2023-04-06T07:51:40;12.80;;;8.18;;
19312;SDS011;9791;50.820;4.406;2023-04-06T07:54:06;14.80;;;8.77;;
19312;SDS011;9791;50.820;4.406;2023-04-06T07:56:32;11.85;;;8.20;;
19312;SDS011;9791;50.820;4.406;2023-04-06T07:59:07;15.52;;;8.90;;
19312;SDS011;9791;50.820;4.406;2023-04-06T08:01:33;15.38;;;8.45;;
19312;SDS011;9791;50.820;4.406;2023-04-06T08:03:59;14.80;;;7.88;;
19312;SDS011;9791;50.820;4.406;2023-04-06T08:06:27;14.20;;;7.97;;
19312;SDS011;9791;50.820;4.406;2023-04-06T08:08:53;13.90;;;8.57;;
19312;SDS011;9791;50.820;4.406;2023-04-06T08:11:19;15.52;;;9.13;;
19312;SDS011;9791;50.820;4.406;2023-04-06T08:13:46;14.80;;;8.68;;
19312;SDS011;9791;50.820;4.406;2023-04-06T08:16:12;15.77;;;9.00;;
19312;SDS011;9791;50.820;4.406;2023-04-06T08:18:38;13.68;;;8.07;;
19312;SDS011;9791;50.820;4.406;2023-04-06T08:21:05;14.63;;;8.40;;
19312;SDS011;9791;50.820;4.406;2023-04-06T08:23:31;15.63;;;8.52;;
19312;SDS011;9791;50.820;4.406;2023-04-06T08:25:58;17.65;;;8.70;;
19312;SDS011;9791;50.820;4.406;2023-04-06T08:28:24;15.48;;;8.43;;
19312;SDS011;9791;50.820;4.406;2023-04-06T08:30:50;18.60;;;8.38;;
19312;SDS011;9791;50.820;4.406;2023-04-06T08:33:16;14.27;;;8.00;;
19312;SDS011;9791;50.820;4.406;2023-04-06T08:35:42;14.43;;;8.57;;
19312;SDS011;9791;50.820;4.406;2023-04-06T08:38:08;14.18;;;8.48;;
19312;SDS011;9791;50.820;4.406;2023-04-06T08:40:37;12.55;;;7.90;;
19312;SDS011;9791;50.820;4.406;2023-04-06T08:43:04;13.23;;;7.93;;
19312;SDS011;9791;50.820;4.406;2023-04-06T08:45:33;12.40;;;7.53;;
19312;SDS011;9791;50.820;4.406;2023-04-06T08:47:59;17.73;;;8.32;;
19312;SDS011;9791;50.820;4.406;2023-04-06T08:50:27;15.85;;;7.60;;
19312;SDS011;9791;50.820;4.406;2023-04-06T08:52:53;14.95;;;7.85;;
19312;SDS011;9791;50.820;4.406;2023-04-06T08:55:19;15.30;;;8.32;;
19312;SDS011;9791;50.820;4.406;2023-04-06T08:57:45;12.63;;;8.05;;
19312;SDS011;9791;50.820;4.406;2023-04-06T09:00:13;12.30;;;7.45;;
19312;SDS011;9791;50.820;4.406;2023-04-06T09:02:39;17.25;;;7.88;;
19312;SDS011;9791;50.820;4.406;2023-04-06T09:05:07;14.85;;;8.40;;
19312;SDS011;9791;50.820;4.406;2023-04-06T09:07:35;13.40;;;8.32;;
19312;SDS011;9791;50.820;4.406;2023-04-06T09:10:01;11.77;;;7.57;;
19312;SDS011;9791;50.820;4.406;2023-04-06T09:12:28;15.00;;;7.78;;
19312;SDS011;9791;50.820;4.406;2023-04-06T09:14:54;15.25;;;8.73;;
19312;SDS011;9791;50.820;4.406;2023-04-06T09:17:21;16.08;;;8.10;;
19312;SDS011;9791;50.820;4.406;2023-04-06T09:19:48;13.73;;;8.40;;
19312;SDS011;9791;50.820;4.406;2023-04-06T09:22:14;13.07;;;8.15;;
19312;SDS011;9791;50.820;4.406;2023-04-06T09:24:44;15.02;;;7.97;;
19312;SDS011;9791;50.820;4.406;2023-04-06T09:27:11;13.07;;;7.90;;
19312;SDS011;9791;50.820;4.406;2023-04-06T09:29:37;15.63;;;7.78;;
19312;SDS011;9791;50.820;4.406;2023-04-06T09:32:04;14.48;;;7.65;;
19312;SDS011;9791;50.820;4.406;2023-04-06T09:34:30;13.55;;;7.43;;
19312;SDS011;9791;50.820;4.406;2023-04-06T09:36:56;13.48;;;7.55;;
19312;SDS011;9791;50.820;4.406;2023-04-06T09:39:23;11.82;;;7.68;;
19312;SDS011;9791;50.820;4.406;2023-04-06T09:41:50;15.25;;;8.38;;
19312;SDS011;9791;50.820;4.406;2023-04-06T09:44:16;11.02;;;7.20;;
19312;SDS011;9791;50.820;4.406;2023-04-06T09:46:43;13.27;;;8.40;;
19312;SDS011;9791;50.820;4.406;2023-04-06T09:49:11;12.38;;;7.45;;
19312;SDS011;9791;50.820;4.406;2023-04-06T09:51:39;13.52;;;7.93;;
19312;SDS011;9791;50.820;4.406;2023-04-06T09:54:08;14.10;;;7.60;;
19312;SDS011;9791;50.820;4.406;2023-04-06T09:56:39;15.30;;;7.72;;
19312;SDS011;9791;50.820;4.406;2023-04-06T09:59:08;13.85;;;7.95;;
19312;SDS011;9791;50.820;4.406;2023-04-06T10:01:37;14.20;;;8.05;;
19312;SDS011;9791;50.820;4.406;2023-04-06T10:04:13;13.77;;;7.95;;
19312;SDS011;9791;50.820;4.406;2023-04-06T10:06:43;12.57;;;7.78;;
19312;SDS011;9791;50.820;4.406;2023-04-06T10:09:16;13.73;;;8.13;;
19312;SDS011;9791;50.820;4.406;2023-04-06T10:11:43;10.65;;;7.32;;
19312;SDS011;9791;50.820;4.406;2023-04-06T10:14:09;13.05;;;8.07;;
19312;SDS011;9791;50.820;4.406;2023-04-06T10:16:36;13.68;;;8.88;;
19312;SDS011;9791;50.820;4.406;2023-04-06T10:19:06;14.45;;;9.30;;
19312;SDS011;9791;50.820;4.406;2023-04-06T10:21:35;14.05;;;8.85;;
19312;SDS011;9791;50.820;4.406;2023-04-06T10:24:02;14.55;;;8.95;;
19312;SDS011;9791;50.820;4.406;2023-04-06T10:26:34;12.85;;;8.13;;
19312;SDS011;9791;50.820;4.406;2023-04-06T10:29:04;16.92;;;8.27;;
19312;SDS011;9791;50.820;4.406;2023-04-06T10:31:30;15.35;;;8.43;;
19312;SDS011;9791;50.820;4.406;2023-04-06T10:36:24;13.45;;;9.02;;
19312;SDS011;9791;50.820;4.406;2023-04-06T10:38:55;13.80;;;8.48;;
19312;SDS011;9791;50.820;4.406;2023-04-06T10:41:22;13.18;;;8.07;;
19312;SDS011;9791;50.820;4.406;2023-04-06T10:43:55;13.90;;;9.57;;
19312;SDS011;9791;50.820;4.406;2023-04-06T10:46:25;16.25;;;8.52;;
19312;SDS011;9791;50.820;4.406;2023-04-06T10:48:51;12.23;;;8.32;;
19312;SDS011;9791;50.820;4.406;2023-04-06T10:51:18;14.15;;;8.77;;
19312;SDS011;9791;50.820;4.406;2023-04-06T10:53:45;14.32;;;8.27;;
19312;SDS011;9791;50.820;4.406;2023-04-06T10:56:14;12.10;;;8.70;;
19312;SDS011;9791;50.820;4.406;2023-04-06T10:58:48;11.55;;;7.80;;
19312;SDS011;9791;50.820;4.406;2023-04-06T11:01:18;11.75;;;7.57;;
19312;SDS011;9791;50.820;4.406;2023-04-06T11:03:45;11.80;;;7.40;;
19312;SDS011;9791;50.820;4.406;2023-04-06T11:06:17;11.75;;;7.63;;
19312;SDS011;9791;50.820;4.406;2023-04-06T11:08:43;14.55;;;8.45;;
19312;SDS011;9791;50.820;4.406;2023-04-06T11:11:10;12.10;;;7.75;;
19312;SDS011;9791;50.820;4.406;2023-04-06T11:16:06;11.15;;;7.80;;
19312;SDS011;9791;50.820;4.406;2023-04-06T11:18:32;13.48;;;7.95;;
19312;SDS011;9791;50.820;4.406;2023-04-06T11:20:58;11.93;;;8.00;;
19312;SDS011;9791;50.820;4.406;2023-04-06T11:23:24;15.23;;;8.13;;
19312;SDS011;9791;50.820;4.406;2023-04-06T11:25:51;12.90;;;8.02;;
19312;SDS011;9791;50.820;4.406;2023-04-06T11:28:18;10.90;;;7.50;;
19312;SDS011;9791;50.820;4.406;2023-04-06T11:30:44;15.32;;;7.35;;
19312;SDS011;9791;50.820;4.406;2023-04-06T11:33:10;14.85;;;7.45;;
19312;SDS011;9791;50.820;4.406;2023-04-06T11:35:36;12.38;;;7.32;;
19312;SDS011;9791;50.820;4.406;2023-04-06T11:38:03;10.75;;;7.07;;
19312;SDS011;9791;50.820;4.406;2023-04-06T11:40:29;12.60;;;7.90;;
19312;SDS011;9791;50.820;4.406;2023-04-06T11:42:58;11.75;;;7.63;;
19312;SDS011;9791;50.820;4.406;2023-04-06T11:45:24;11.88;;;7.45;;
19312;SDS011;9791;50.820;4.406;2023-04-06T11:47:57;11.88;;;7.65;;
19312;SDS011;9791;50.820;4.406;2023-04-06T11:50:24;11.32;;;7.13;;
19312;SDS011;9791;50.820;4.406;2023-04-06T11:53:00;12.27;;;8.10;;
19312;SDS011;9791;50.820;4.406;2023-04-06T11:55:26;13.52;;;8.30;;
19312;SDS011;9791;50.820;4.406;2023-04-06T11:57:53;12.23;;;7.55;;
19312;SDS011;9791;50.820;4.406;2023-04-06T12:00:20;11.00;;;7.55;;
19312;SDS011;9791;50.820;4.406;2023-04-06T12:02:49;12.77;;;8.63;;
19312;SDS011;9791;50.820;4.406;2023-04-06T12:05:16;11.30;;;7.82;;
19312;SDS011;9791;50.820;4.406;2023-04-06T12:07:42;12.32;;;7.57;;
19312;SDS011;9791;50.820;4.406;2023-04-06T12:10:09;17.88;;;8.38;;
19312;SDS011;9791;50.820;4.406;2023-04-06T12:12:35;15.13;;;7.80;;
19312;SDS011;9791;50.820;4.406;2023-04-06T12:15:01;14.52;;;8.05;;
19312;SDS011;9791;50.820;4.406;2023-04-06T12:17:27;13.60;;;8.75;;
19312;SDS011;9791;50.820;4.406;2023-04-06T12:19:53;11.88;;;7.85;;
19312;SDS011;9791;50.820;4.406;2023-04-06T12:22:19;11.27;;;7.82;;
19312;SDS011;9791;50.820;4.406;2023-04-06T12:24:45;11.60;;;7.93;;
19312;SDS011;9791;50.820;4.406;2023-04-06T12:27:11;13.43;;;7.90;;
19312;SDS011;9791;50.820;4.406;2023-04-06T12:29:37;12.30;;;8.05;;
19312;SDS011;9791;50.820;4.406;2023-04-06T12:32:03;12.40;;;8.43;;
19312;SDS011;9791;50.820;4.406;2023-04-06T12:34:31;12.70;;;7.90;;
19312;SDS011;9791;50.820;4.406;2023-04-06T12:36:57;11.57;;;7.72;;
19312;SDS011;9791;50.820;4.406;2023-04-06T12:39:23;12.85;;;7.93;;
19312;SDS011;9791;50.820;4.406;2023-04-06T12:41:50;11.73;;;8.05;;
19312;SDS011;9791;50.820;4.406;2023-04-06T12:44:16;11.40;;;8.20;;
19312;SDS011;9791;50.820;4.406;2023-04-06T12:46:42;14.05;;;8.38;;
19312;SDS011;9791;50.820;4.406;2023-04-06T12:49:08;12.73;;;8.38;;
19312;SDS011;9791;50.820;4.406;2023-04-06T12:51:34;12.43;;;8.88;;
19312;SDS011;9791;50.820;4.406;2023-04-06T12:54:00;13.23;;;9.07;;
19312;SDS011;9791;50.820;4.406;2023-04-06T12:56:26;16.17;;;9.45;;
19312;SDS011;9791;50.820;4.406;2023-04-06T12:58:53;12.60;;;8.98;;
19312;SDS011;9791;50.820;4.406;2023-04-06T13:01:19;14.05;;;8.63;;
19312;SDS011;9791;50.820;4.406;2023-04-06T13:03:46;13.45;;;9.80;;
19312;SDS011;9791;50.820;4.406;2023-04-06T13:06:12;12.98;;;8.95;;
19312;SDS011;9791;50.820;4.406;2023-04-06T13:08:39;14.77;;;9.25;;
19312;SDS011;9791;50.820;4.406;2023-04-06T13:11:06;12.48;;;8.90;;
19312;SDS011;9791;50.820;4.406;2023-04-06T13:13:34;15.32;;;9.43;;
19312;SDS011;9791;50.820;4.406;2023-04-06T13:16:01;14.52;;;9.68;;
19312;SDS011;9791;50.820;4.406;2023-04-06T13:18:27;15.27;;;9.73;;
19312;SDS011;9791;50.820;4.406;2023-04-06T13:20:55;15.82;;;10.77;;
19312;SDS011;9791;50.820;4.406;2023-04-06T13:23:21;15.93;;;10.55;;
19312;SDS011;9791;50.820;4.406;2023-04-06T13:25:47;12.95;;;9.27;;
19312;SDS011;9791;50.820;4.406;2023-04-06T13:28:13;15.70;;;9.43;;
19312;SDS011;9791;50.820;4.406;2023-04-06T13:30:39;16.08;;;9.90;;
19312;SDS011;9791;50.820;4.406;2023-04-06T13:33:05;14.88;;;9.77;;
19312;SDS011;9791;50.820;4.406;2023-04-06T13:35:31;14.45;;;9.98;;
19312;SDS011;9791;50.820;4.406;2023-04-06T13:37:57;16.35;;;10.50;;
19312;SDS011;9791;50.820;4.406;2023-04-06T13:40:23;14.65;;;10.10;;
19312;SDS011;9791;50.820;4.406;2023-04-06T13:42:50;15.93;;;9.88;;
19312;SDS011;9791;50.820;4.406;2023-04-06T13:45:16;16.40;;;9.98;;
19312;SDS011;9791;50.820;4.406;2023-04-06T13:47:42;18.83;;;10.88;;
19312;SDS011;9791;50.820;4.406;2023-04-06T13:50:08;14.70;;;9.60;;
19312;SDS011;9791;50.820;4.406;2023-04-06T13:52:35;12.18;;;8.13;;
19312;SDS011;9791;50.820;4.406;2023-04-06T13:55:01;15.60;;;9.88;;
19312;SDS011;9791;50.820;4.406;2023-04-06T13:57:27;13.15;;;8.80;;
19312;SDS011;9791;50.820;4.406;2023-04-06T13:59:54;14.70;;;10.02;;
19312;SDS011;9791;50.820;4.406;2023-04-06T14:02:21;16.50;;;9.73;;
19312;SDS011;9791;50.820;4.406;2023-04-06T14:04:52;13.13;;;8.85;;
19312;SDS011;9791;50.820;4.406;2023-04-06T14:07:19;13.38;;;9.10;;
19312;SDS011;9791;50.820;4.406;2023-04-06T14:09:45;15.88;;;9.55;;
19312;SDS011;9791;50.820;4.406;2023-04-06T14:12:11;14.05;;;9.32;;
19312;SDS011;9791;50.820;4.406;2023-04-06T14:14:37;12.45;;;8.77;;
19312;SDS011;9791;50.820;4.406;2023-04-06T14:17:03;14.57;;;9.55;;
19312;SDS011;9791;50.820;4.406;2023-04-06T14:19:29;15.65;;;9.07;;
19312;SDS011;9791;50.820;4.406;2023-04-06T14:21:55;14.90;;;10.35;;
19312;SDS011;9791;50.820;4.406;2023-04-06T14:24:21;14.00;;;9.45;;
19312;SDS011;9791;50.820;4.406;2023-04-06T14:26:47;14.98;;;10.23;;
19312;SDS011;9791;50.820;4.406;2023-04-06T14:29:13;12.60;;;9.32;;
19312;SDS011;9791;50.820;4.406;2023-04-06T14:31:40;14.63;;;9.30;;
19312;SDS011;9791;50.820;4.406;2023-04-06T14:34:06;13.60;;;9.93;;
19312;SDS011;9791;50.820;4.406;2023-04-06T14:36:33;14.55;;;9.60;;
19312;SDS011;9791;50.820;4.406;2023-04-06T14:39:03;14.63;;;9.95;;
19312;SDS011;9791;50.820;4.406;2023-04-06T14:41:29;15.23;;;10.05;;
19312;SDS011;9791;50.820;4.406;2023-04-06T14:43:59;14.35;;;10.27;;
19312;SDS011;9791;50.820;4.406;2023-04-06T14:46:25;14.82;;;9.88;;